Time;durP1;ratioP1;P1;durP2;ratioP2;P2;SDS_P1;SDS_P2;PMS_P1;PMS_P2;Temp;Humidity;BMP_temperature;BMP_pressure;BME280_temperature;BME280_humidity;BME280_pressure;Samples;Min_cycle;Max_cycle;Signal;HPM_P1;HPM_P2
2021/12/06 00:01:34;;;;;;;42.05;24.25;;;;;;;-0.07;100.00;98910.63;5012760;28;20034;-83
2021/12/06 00:04:13;;;;;;;38.45;22.65;;;;;;;-0.07;100.00;98909.84;4991711;28;20451;-83
2021/12/06 00:06:40;;;;;;;37.38;22.83;;;;;;;-0.05;100.00;98915.72;4974352;28;20121;-83
2021/12/06 00:09:08;;;;;;;33.28;19.90;;;;;;;0.01;100.00;98919.56;4992271;28;20042;-82
2021/12/06 00:11:34;;;;;;;34.42;22.25;;;;;;;0.02;100.00;98923.06;4977787;28;20143;-83
2021/12/06 00:14:02;;;;;;;35.55;20.83;;;;;;;0.01;100.00;98922.28;4991808;28;20458;-83
2021/12/06 00:16:28;;;;;;;32.05;20.13;;;;;;;0.05;100.00;98933.19;4992186;28;20044;-83
2021/12/06 00:18:53;;;;;;;30.92;19.08;;;;;;;0.05;100.00;98933.97;4981531;28;20106;-83
2021/12/06 00:21:21;;;;;;;29.52;19.02;;;;;;;-0.01;100.00;98930.88;4992134;28;20030;-83
2021/12/06 00:23:47;;;;;;;30.90;19.55;;;;;;;0.05;100.00;98942.16;4990622;28;20182;-84
2021/12/06 00:26:12;;;;;;;30.35;20.08;;;;;;;0.07;100.00;98915.28;4991461;28;20533;-83
2021/12/06 00:28:40;;;;;;;28.25;19.40;;;;;;;0.08;100.00;98921.53;4974991;28;20042;-83
2021/12/06 00:31:10;;;;;;;33.45;20.45;;;;;;;-0.02;100.00;98910.25;4990668;28;20140;-84
2021/12/06 00:33:35;;;;;;;30.02;19.25;;;;;;;0.11;100.00;98920.72;4980005;28;20047;-84
2021/12/06 00:36:07;;;;;;;32.28;20.35;;;;;;;0.10;100.00;98930.06;4974537;28;20034;-83
2021/12/06 00:38:34;;;;;;;29.88;19.67;;;;;;;0.10;100.00;98921.88;4974285;28;20098;-83
2021/12/06 00:41:02;;;;;;;29.42;18.58;;;;;;;0.10;100.00;98914.50;4974504;28;20100;-83
2021/12/06 00:43:28;;;;;;;29.75;19.35;;;;;;;0.06;100.00;98919.19;4991633;28;20435;-83
2021/12/06 00:45:53;;;;;;;26.08;17.40;;;;;;;0.13;100.00;98932.00;4974065;28;20042;-84
2021/12/06 00:48:20;;;;;;;28.67;18.58;;;;;;;0.11;100.00;98937.09;4991177;28;20572;-84
2021/12/06 00:50:45;;;;;;;27.77;18.00;;;;;;;0.10;100.00;98949.94;4991164;28;20141;-84
2021/12/06 00:53:11;;;;;;;28.27;17.75;;;;;;;0.06;100.00;98943.72;4975018;28;20046;-84
2021/12/06 00:55:37;;;;;;;27.52;18.20;;;;;;;0.07;100.00;98949.94;4958488;28;20062;-85
2021/12/06 00:58:03;;;;;;;26.23;17.83;;;;;;;0.06;100.00;98945.66;4991911;28;20043;-85
2021/12/06 01:00:39;;;;;;;26.20;16.60;;;;;;;0.10;100.00;98947.22;4972956;28;20035;-85
2021/12/06 01:03:13;;;;;;;25.90;16.63;;;;;;;0.10;100.00;98936.31;4984938;28;20046;-85
2021/12/06 01:05:38;;;;;;;24.40;16.23;;;;;;;0.09;100.00;98933.97;4993738;28;20076;-85
2021/12/06 01:08:04;;;;;;;23.25;15.02;;;;;;;0.08;100.00;98929.69;4993459;28;20117;-85
2021/12/06 01:10:31;;;;;;;24.17;15.68;;;;;;;0.11;100.00;98934.34;5010791;28;20491;-85
2021/12/06 01:12:57;;;;;;;26.95;16.17;;;;;;;0.03;100.00;98930.09;5010311;28;20579;-85
2021/12/06 01:15:24;;;;;;;22.67;15.95;;;;;;;0.08;100.00;98935.16;5010328;28;20092;-85
2021/12/06 01:17:49;;;;;;;24.92;15.27;;;;;;;0.02;100.00;98937.50;5009855;28;20046;-85
2021/12/06 01:20:20;;;;;;;26.13;17.05;;;;;;;0.05;100.00;98944.09;4993210;28;20049;-84
2021/12/06 01:25:33;;;;;;;28.17;18.08;;;;;;;0.08;100.00;98943.34;5010635;28;20056;-85
2021/12/06 01:41:25;;;;;;;31.95;19.45;;;;;;;0.14;100.00;98958.09;5004159;28;20046;-85
2021/12/06 01:44:11;;;;;;;29.75;18.05;;;;;;;0.09;100.00;98955.78;5009904;28;20038;-85
2021/12/06 01:46:56;;;;;;;28.88;17.67;;;;;;;0.18;100.00;98967.06;4996909;28;20124;-86
2021/12/06 01:49:24;;;;;;;30.90;19.00;;;;;;;0.19;100.00;98965.91;4991877;28;20062;-85
2021/12/06 01:51:53;;;;;;;32.88;19.23;;;;;;;0.16;100.00;98955.78;4976159;28;20102;-85
2021/12/06 01:54:20;;;;;;;36.58;20.30;;;;;;;0.20;100.00;98959.28;4976749;28;20034;-85
2021/12/06 01:56:47;;;;;;;29.83;17.65;;;;;;;0.20;100.00;98957.34;4976485;28;20434;-85
2021/12/06 01:59:13;;;;;;;33.88;20.38;;;;;;;0.11;100.00;98939.81;5009922;28;20050;-85
2021/12/06 02:01:40;;;;;;;32.72;19.73;;;;;;;0.17;100.00;98949.91;4992414;28;20038;-85
2021/12/06 02:04:05;;;;;;;34.65;19.98;;;;;;;0.19;100.00;98933.94;4962622;28;20085;-85
2021/12/06 02:06:32;;;;;;;36.03;20.73;;;;;;;0.17;100.00;98933.56;4989141;28;20723;-85
2021/12/06 02:08:58;;;;;;;38.03;22.05;;;;;;;0.18;100.00;98931.59;4973465;28;20037;-85
2021/12/06 02:11:26;;;;;;;34.83;19.67;;;;;;;0.15;100.00;98921.50;4991244;28;20042;-85
2021/12/06 02:14:03;;;;;;;38.03;21.88;;;;;;;0.05;100.00;98895.81;4994294;28;20045;-85
2021/12/06 02:16:39;;;;;;;39.30;22.45;;;;;;;0.13;100.00;98907.47;4993207;28;20196;-86
2021/12/06 02:19:05;;;;;;;34.30;19.98;;;;;;;0.09;100.00;98906.69;4993365;28;20563;-85
2021/12/06 02:21:37;;;;;;;40.78;22.23;;;;;;;0.15;100.00;98905.13;4994296;28;20476;-85
2021/12/06 02:24:07;;;;;;;42.55;22.90;;;;;;;0.12;100.00;98898.53;4977023;28;20058;-85
2021/12/06 02:26:33;;;;;;;40.58;23.02;;;;;;;0.08;100.00;98900.50;4992978;28;20555;-86
2021/12/06 02:29:00;;;;;;;43.33;22.65;;;;;;;0.13;100.00;98896.56;4992891;28;20038;-85
2021/12/06 02:31:27;;;;;;;41.63;22.50;;;;;;;0.09;100.00;98895.78;4977583;28;20462;-86
2021/12/06 02:33:54;;;;;;;41.72;21.65;;;;;;;0.16;100.00;98901.25;4992863;28;20146;-86
2021/12/06 02:36:22;;;;;;;41.33;22.05;;;;;;;0.16;100.00;98912.94;4995068;28;20261;-85
2021/12/06 02:38:48;;;;;;;37.38;19.40;;;;;;;0.18;100.00;98912.50;4994469;28;20073;-85
2021/12/06 02:41:15;;;;;;;43.35;22.85;;;;;;;0.17;100.00;98913.69;4993625;28;20057;-86
2021/12/06 02:43:41;;;;;;;40.40;22.73;;;;;;;0.18;100.00;98915.25;4976388;28;20042;-85
2021/12/06 02:46:07;;;;;;;35.25;18.40;;;;;;;0.20;100.00;98919.16;4960348;28;20062;-85
2021/12/06 02:48:33;;;;;;;42.03;23.40;;;;;;;0.20;100.00;98912.91;4993253;28;20042;-85
2021/12/06 02:51:00;;;;;;;45.63;24.27;;;;;;;0.12;100.00;98900.47;4993879;28;20031;-85
2021/12/06 02:53:28;;;;;;;44.75;23.60;;;;;;;0.21;100.00;98917.19;4993250;28;20054;-86
2021/12/06 02:55:58;;;;;;;46.95;23.77;;;;;;;0.13;100.00;98905.50;4976467;28;20069;-85
2021/12/06 03:01:11;;;;;;;45.92;24.25;;;;;;;0.28;100.00;98930.81;4991938;28;20034;-86
2021/12/06 03:03:38;;;;;;;44.15;23.35;;;;;;;0.29;100.00;98935.84;4975606;28;20054;-85
2021/12/06 03:06:06;;;;;;;46.70;24.52;;;;;;;0.23;100.00;98925.75;4985011;28;20292;-85
2021/12/06 03:08:54;;;;;;;43.95;24.45;;;;;;;0.16;100.00;98915.66;4993181;28;20046;-85
2021/12/06 03:11:37;;;;;;;43.28;21.73;;;;;;;0.31;100.00;98936.25;4983286;28;20115;-85
2021/12/06 03:14:04;;;;;;;47.25;24.13;;;;;;;0.32;100.00;98942.50;4993500;28;20467;-85
2021/12/06 03:16:31;;;;;;;45.47;23.80;;;;;;;0.35;100.00;98937.00;4992542;28;20034;-85
2021/12/06 03:18:57;;;;;;;49.28;24.13;;;;;;;0.32;100.00;98931.56;4976091;28;20575;-84
2021/12/06 03:21:23;;;;;;;47.33;24.92;;;;;;;0.38;100.00;98949.06;4974949;28;20065;-84
2021/12/06 03:23:51;;;;;;;41.90;22.92;;;;;;;0.39;100.00;98953.38;4991969;28;20515;-84
2021/12/06 03:26:17;;;;;;;43.13;23.13;;;;;;;0.37;100.00;98950.25;4991918;28;20054;-85
2021/12/06 03:28:43;;;;;;;47.08;24.73;;;;;;;0.39;100.00;98953.38;4991689;28;20042;-85
2021/12/06 03:31:11;;;;;;;49.08;23.70;;;;;;;0.42;100.00;98964.25;4991942;28;20030;-85
2021/12/06 03:33:40;;;;;;;45.60;23.58;;;;;;;0.37;100.00;98955.69;4991785;28;20034;-86
2021/12/06 03:36:07;;;;;;;51.10;24.67;;;;;;;0.44;100.00;98961.16;4992036;28;20420;-85
2021/12/06 03:38:35;;;;;;;54.88;25.70;;;;;;;0.42;100.00;98968.94;4975839;28;20050;-85
2021/12/06 03:41:01;;;;;;;53.42;25.20;;;;;;;0.42;100.00;98966.22;4975091;28;20034;-86
2021/12/06 03:43:26;;;;;;;54.05;24.27;;;;;;;0.44;100.00;98963.88;4992299;28;20548;-85
2021/12/06 03:45:52;;;;;;;52.00;25.10;;;;;;;0.42;100.00;98963.47;4991625;28;20125;-86
2021/12/06 03:48:18;;;;;;;60.80;28.13;;;;;;;0.43;100.00;98965.03;4992967;28;20038;-85
2021/12/06 03:50:45;;;;;;;53.63;25.88;;;;;;;0.42;100.00;98975.19;5003455;28;20048;-85
2021/12/06 03:53:11;;;;;;;50.67;25.83;;;;;;;0.31;100.00;98963.53;4994712;28;20038;-86
2021/12/06 03:55:37;;;;;;;49.88;25.60;;;;;;;0.38;100.00;98962.72;5008246;28;20041;-85
2021/12/06 03:58:04;;;;;;;55.60;26.00;;;;;;;0.43;100.00;98965.81;4993517;28;20455;-85
2021/12/06 04:00:29;;;;;;;50.47;25.45;;;;;;;0.47;100.00;98966.59;4971944;28;20038;-87
2021/12/06 04:02:57;;;;;;;49.38;24.45;;;;;;;0.50;100.00;98966.97;4986523;28;20052;-85
2021/12/06 04:05:23;;;;;;;45.42;23.60;;;;;;;0.48;100.00;98967.38;5005543;28;20042;-85
2021/12/06 04:07:49;;;;;;;47.35;25.55;;;;;;;0.51;100.00;98969.31;5007466;28;20401;-85
2021/12/06 04:10:15;;;;;;;46.40;25.70;;;;;;;0.50;100.00;98958.78;5002643;28;20045;-85
2021/12/06 04:12:41;;;;;;;47.10;25.52;;;;;;;0.52;100.00;98956.44;5013937;28;20041;-85
2021/12/06 04:15:08;;;;;;;47.97;25.27;;;;;;;0.51;100.00;98963.84;5012013;28;20046;-85
2021/12/06 04:17:38;;;;;;;45.40;24.80;;;;;;;0.51;100.00;98958.38;5012026;28;20471;-85
2021/12/06 04:20:06;;;;;;;52.30;25.45;;;;;;;0.54;100.00;98968.50;4993697;28;20045;-85
2021/12/06 04:22:32;;;;;;;49.05;24.00;;;;;;;0.50;100.00;98959.56;4993978;28;20038;-85
2021/12/06 04:25:01;;;;;;;45.78;25.20;;;;;;;0.55;100.00;98961.88;5011953;28;20089;-85
2021/12/06 04:27:27;;;;;;;48.40;25.35;;;;;;;0.57;100.00;98986.81;4993389;28;20042;-85
2021/12/06 04:29:53;;;;;;;46.22;24.90;;;;;;;0.51;100.00;98977.50;4977782;28;20041;-85
2021/12/06 04:32:21;;;;;;;44.50;24.75;;;;;;;0.57;100.00;98984.06;4993785;28;20065;-85
2021/12/06 04:34:47;;;;;;;47.17;25.17;;;;;;;0.56;100.00;98979.81;4993261;28;20050;-85
2021/12/06 04:37:14;;;;;;;43.92;23.63;;;;;;;0.57;100.00;98981.34;4994145;28;20034;-85
2021/12/06 04:39:40;;;;;;;46.42;24.70;;;;;;;0.58;100.00;98982.91;4994275;28;20491;-85
2021/12/06 04:42:06;;;;;;;46.05;24.83;;;;;;;0.62;100.00;98988.34;4992553;28;20088;-85
2021/12/06 04:44:31;;;;;;;34.67;18.55;;;;;;;0.64;100.00;98986.03;5010950;28;20038;-85
2021/12/06 04:46:58;;;;;;;46.58;25.05;;;;;;;0.59;100.00;98970.06;4977059;28;20407;-85
2021/12/06 04:49:26;;;;;;;42.28;23.02;;;;;;;0.66;100.00;98984.44;4994170;28;20061;-85
2021/12/06 04:51:56;;;;;;;41.55;23.85;;;;;;;0.67;100.00;98985.22;4992615;28;20127;-85
2021/12/06 04:54:26;;;;;;;34.33;21.38;;;;;;;0.68;100.00;98990.28;4990842;28;20401;-85
2021/12/06 04:57:03;;;;;;;34.28;21.23;;;;;;;0.67;100.00;98980.53;5010377;28;20061;-85
2021/12/06 04:59:33;;;;;;;33.05;18.92;;;;;;;0.75;100.00;98987.53;4977681;28;20038;-85
2021/12/06 05:02:03;;;;;;;33.92;19.25;;;;;;;0.72;100.00;98987.56;4993114;28;20084;-85
2021/12/06 05:04:31;;;;;;;27.02;17.67;;;;;;;0.80;100.00;98978.94;4992824;28;20042;-84
2021/12/06 05:07:02;;;;;;;25.88;16.70;;;;;;;0.81;100.00;98991.38;4977564;28;20111;-85
2021/12/06 05:09:36;;;;;;;26.15;16.80;;;;;;;0.84;100.00;98985.16;4994092;28;20074;-85
2021/12/06 05:12:03;;;;;;;27.08;18.15;;;;;;;0.84;100.00;98982.44;4994354;28;20042;-85
2021/12/06 05:14:30;;;;;;;21.83;15.18;;;;;;;0.87;100.00;98983.56;4992953;28;20104;-85
2021/12/06 05:16:56;;;;;;;23.30;16.27;;;;;;;0.87;100.00;98978.91;4993115;28;20426;-85
2021/12/06 05:19:22;;;;;;;21.70;15.35;;;;;;;0.83;100.00;98989.06;4985957;28;20100;-86
2021/12/06 05:21:47;;;;;;;20.20;15.35;;;;;;;0.87;100.00;99003.47;4976942;28;20066;-85
2021/12/06 05:24:15;;;;;;;19.98;14.40;;;;;;;0.84;100.00;98995.28;4992035;28;20495;-85
2021/12/06 05:26:42;;;;;;;20.85;13.63;;;;;;;0.89;100.00;99001.09;4992516;28;20034;-85
2021/12/06 05:29:13;;;;;;;18.30;12.55;;;;;;;0.88;100.00;99015.94;4993081;28;20472;-84
2021/12/06 05:31:40;;;;;;;18.02;13.15;;;;;;;0.88;100.00;99023.34;5010723;28;20042;-85
2021/12/06 05:34:13;;;;;;;19.08;13.90;;;;;;;0.86;100.00;99026.47;4989177;28;20046;-85
2021/12/06 05:36:39;;;;;;;17.48;12.77;;;;;;;0.91;100.00;99033.47;4992929;28;20082;-85
2021/12/06 05:39:06;;;;;;;17.90;13.50;;;;;;;0.90;100.00;99040.09;4991621;28;20400;-82
2021/12/06 05:41:33;;;;;;;16.58;12.25;;;;;;;0.84;100.00;99028.84;5009047;28;20042;-82
2021/12/06 05:43:59;;;;;;;16.67;12.73;;;;;;;0.93;100.00;99039.34;4990787;28;20045;-82
2021/12/06 05:46:24;;;;;;;15.95;12.38;;;;;;;0.91;100.00;99045.19;4989333;28;20049;-82
2021/12/06 05:48:51;;;;;;;15.25;12.15;;;;;;;0.92;100.00;99037.78;5015051;28;20033;-82
2021/12/06 05:51:16;;;;;;;14.27;11.55;;;;;;;0.96;100.00;99051.41;5007126;28;20570;-82
2021/12/06 05:53:43;;;;;;;13.45;11.02;;;;;;;0.98;100.00;99054.50;5013125;28;20037;-82
2021/12/06 05:56:08;;;;;;;13.55;11.13;;;;;;;0.94;100.00;99049.06;4997512;28;20800;-82
2021/12/06 05:58:34;;;;;;;14.80;11.82;;;;;;;1.00;100.00;99063.88;5017162;28;20042;-82
2021/12/06 06:01:01;;;;;;;13.95;10.15;;;;;;;0.99;100.00;99067.00;5009493;28;20042;-82
2021/12/06 06:03:26;;;;;;;14.15;10.85;;;;;;;0.98;100.00;99071.66;4985239;28;20585;-82
2021/12/06 06:05:52;;;;;;;14.52;11.43;;;;;;;1.01;100.00;99072.84;5018885;28;20177;-82
2021/12/06 06:08:19;;;;;;;14.23;10.73;;;;;;;1.03;100.00;99068.53;5009063;28;20407;-81
2021/12/06 06:10:47;;;;;;;13.32;10.65;;;;;;;1.03;100.00;99067.75;5011691;28;20038;-81
2021/12/06 06:13:13;;;;;;;12.65;9.50;;;;;;;0.98;100.00;99060.75;4995844;28;20037;-81
2021/12/06 06:15:38;;;;;;;11.40;9.70;;;;;;;1.03;100.00;99074.00;5006020;28;20503;-82
2021/12/06 06:18:05;;;;;;;11.30;9.23;;;;;;;1.04;100.00;99080.25;5010006;28;20176;-82
2021/12/06 06:20:34;;;;;;;12.45;10.02;;;;;;;1.11;100.00;99088.41;4990370;28;20038;-82
2021/12/06 06:23:00;;;;;;;11.02;8.98;;;;;;;1.06;100.00;99078.66;5016814;28;20041;-83
2021/12/06 06:25:27;;;;;;;12.32;9.32;;;;;;;1.12;100.00;99087.22;4999268;28;20079;-83
2021/12/06 06:27:53;;;;;;;11.60;9.07;;;;;;;1.15;100.00;99097.34;5019342;28;20057;-83
2021/12/06 06:30:18;;;;;;;11.27;8.73;;;;;;;1.15;100.00;99102.81;5013686;28;20042;-82
2021/12/06 06:32:44;;;;;;;10.82;8.80;;;;;;;1.17;100.00;99105.94;5009783;28;20051;-83
2021/12/06 06:35:11;;;;;;;10.68;8.43;;;;;;;1.20;100.00;99114.13;5007019;28;20034;-82
2021/12/06 06:37:37;;;;;;;11.00;8.98;;;;;;;1.21;100.00;99104.75;5008709;28;20546;-83
2021/12/06 06:40:03;;;;;;;10.63;8.70;;;;;;;1.25;100.00;99121.13;4987233;28;20034;-84
2021/12/06 06:42:29;;;;;;;10.85;8.65;;;;;;;1.26;100.00;99125.41;5009492;28;20470;-83
2021/12/06 06:44:55;;;;;;;11.55;8.90;;;;;;;1.21;100.00;99121.16;4991231;28;20124;-83
2021/12/06 06:47:20;;;;;;;10.35;8.43;;;;;;;1.25;100.00;99130.13;4989916;28;20041;-82
2021/12/06 06:49:46;;;;;;;9.85;8.30;;;;;;;1.30;100.00;99131.63;4991971;28;20045;-82
2021/12/06 06:52:12;;;;;;;9.45;7.72;;;;;;;1.27;100.00;99138.69;4989830;28;20038;-82
2021/12/06 06:54:38;;;;;;;8.82;7.13;;;;;;;1.31;100.00;99138.66;5007874;28;20484;-84
2021/12/06 06:57:04;;;;;;;9.85;7.68;;;;;;;1.35;100.00;99145.66;4976606;28;20060;-84
2021/12/06 06:59:29;;;;;;;9.32;8.15;;;;;;;1.42;100.00;99148.38;5013784;28;20049;-84
2021/12/06 07:01:55;;;;;;;10.43;8.27;;;;;;;1.44;100.00;99153.44;4998047;28;20046;-85
2021/12/06 07:04:21;;;;;;;10.65;7.65;;;;;;;1.45;100.00;99149.53;4994167;28;20101;-84
2021/12/06 07:06:47;;;;;;;15.77;10.57;;;;;;;1.45;100.00;99155.00;4994606;28;20068;-84
2021/12/06 07:09:12;;;;;;;17.05;11.80;;;;;;;1.43;100.00;99146.41;4994095;28;20043;-83
2021/12/06 07:11:40;;;;;;;18.67;11.93;;;;;;;1.50;100.00;99146.38;5027033;28;20101;-84
2021/12/06 07:14:06;;;;;;;13.20;9.73;;;;;;;1.50;100.00;99146.38;5023366;28;20033;-84
2021/12/06 07:16:31;;;;;;;12.05;8.25;;;;;;;1.57;100.00;99145.59;4980209;28;20049;-84
2021/12/06 07:18:57;;;;;;;13.48;9.60;;;;;;;1.57;100.00;99157.28;4996462;28;20579;-84
2021/12/06 07:21:23;;;;;;;12.52;8.93;;;;;;;1.60;100.00;99161.19;5014045;28;20514;-84
2021/12/06 07:23:51;;;;;;;12.77;10.02;;;;;;;1.58;100.00;99150.63;5013669;28;20058;-84
2021/12/06 07:26:18;;;;;;;12.82;9.55;;;;;;;1.58;100.00;99153.38;5013470;28;20065;-83
2021/12/06 07:28:45;;;;;;;11.65;8.77;;;;;;;1.57;100.00;99148.31;5013783;28;20077;-84
2021/12/06 07:31:14;;;;;;;12.43;10.02;;;;;;;1.61;100.00;99162.75;4996059;28;20049;-83
2021/12/06 07:33:40;;;;;;;12.13;8.98;;;;;;;1.60;100.00;99156.50;5013637;28;20053;-85
2021/12/06 07:36:06;;;;;;;13.82;10.20;;;;;;;1.60;100.00;99155.72;5013415;28;20029;-85
2021/12/06 07:38:34;;;;;;;13.20;9.88;;;;;;;1.60;100.00;99161.97;5013586;28;20077;-85
2021/12/06 07:41:00;;;;;;;11.57;9.07;;;;;;;1.58;100.00;99158.84;5013258;28;20372;-85
2021/12/06 07:43:26;;;;;;;11.32;8.98;;;;;;;1.57;100.00;99162.75;5013244;28;20052;-85
2021/12/06 07:45:51;;;;;;;10.80;8.45;;;;;;;1.57;100.00;99162.75;5013519;28;20045;-85
2021/12/06 07:48:17;;;;;;;12.20;9.45;;;;;;;1.57;100.00;99161.97;5013295;28;20118;-85
2021/12/06 07:50:42;;;;;;;12.30;8.95;;;;;;;1.58;100.00;99164.31;5013423;28;20045;-85
2021/12/06 07:53:08;;;;;;;12.65;9.43;;;;;;;1.56;100.00;99165.88;4995663;28;20049;-85
2021/12/06 07:55:34;;;;;;;13.90;10.00;;;;;;;1.55;100.00;99153.38;4995872;28;20030;-85
2021/12/06 07:58:04;;;;;;;13.48;10.95;;;;;;;1.61;100.00;99163.53;5013412;28;20403;-85
2021/12/06 08:00:31;;;;;;;10.90;7.80;;;;;;;1.61;100.00;99160.78;4995708;28;20049;-85
2021/12/06 08:02:57;;;;;;;12.50;9.10;;;;;;;1.57;100.00;99151.03;4991878;28;20058;-85
2021/12/06 08:05:44;;;;;;;11.35;8.90;;;;;;;1.59;100.00;99160.41;4993400;28;20038;-85
2021/12/06 08:08:14;;;;;;;13.20;9.48;;;;;;;1.62;100.00;99159.59;4991914;28;20054;-85
2021/12/06 08:10:44;;;;;;;14.77;9.93;;;;;;;1.68;100.00;99165.44;4983947;28;20420;-85
2021/12/06 08:13:11;;;;;;;14.30;10.57;;;;;;;1.71;100.00;99153.69;4976384;28;20236;-85
2021/12/06 08:15:36;;;;;;;10.23;7.03;;;;;;;1.81;100.00;99156.38;4993226;28;20503;-86
2021/12/06 08:18:04;;;;;;;13.20;9.15;;;;;;;1.94;100.00;99159.44;4992909;28;20038;-86
2021/12/06 08:20:29;;;;;;;14.43;9.90;;;;;;;1.95;100.00;99173.88;4992948;28;20042;-85
2021/12/06 08:22:55;;;;;;;15.27;11.55;;;;;;;1.89;100.00;99162.59;4993240;28;20050;-85
2021/12/06 08:25:20;;;;;;;15.30;11.52;;;;;;;1.90;100.00;99171.56;4991728;28;20514;-85
2021/12/06 08:27:46;;;;;;;16.33;11.45;;;;;;;1.99;100.00;99185.56;4991881;28;20038;-85
2021/12/06 08:30:13;;;;;;;15.68;11.70;;;;;;;2.00;100.00;99195.34;4992543;28;20400;-85
2021/12/06 08:32:39;;;;;;;16.20;11.82;;;;;;;2.04;100.00;99196.09;4991867;28;20050;-85
2021/12/06 08:35:05;;;;;;;15.13;11.57;;;;;;;2.10;100.00;99197.25;4992812;28;20551;-85
2021/12/06 08:37:31;;;;;;;15.85;11.95;;;;;;;2.15;100.00;99199.53;4992031;28;20128;-85
2021/12/06 08:39:56;;;;;;;14.85;9.90;;;;;;;2.21;100.00;99211.63;4992878;28;20113;-85
2021/12/06 08:42:22;;;;;;;16.33;10.85;;;;;;;2.21;100.00;99200.69;4992215;28;20125;-85
2021/12/06 08:44:47;;;;;;;20.52;14.43;;;;;;;2.26;100.00;99194.78;4993171;28;20108;-85
2021/12/06 08:47:15;;;;;;;15.52;10.75;;;;;;;2.33;100.00;99200.22;4994850;28;20072;-85
2021/12/06 08:49:41;;;;;;;19.45;12.75;;;;;;;2.37;100.00;99202.91;4994315;28;20034;-85
2021/12/06 08:52:07;;;;;;;19.00;13.25;;;;;;;2.39;100.00;99211.53;4992608;28;20054;-85
2021/12/06 08:54:33;;;;;;;19.50;13.48;;;;;;;2.42;100.00;99199.75;4975145;28;20046;-85
2021/12/06 08:57:00;;;;;;;20.75;14.60;;;;;;;2.39;100.00;99192.34;4991007;28;20043;-85
2021/12/06 08:59:25;;;;;;;20.02;14.57;;;;;;;2.49;100.00;99216.91;4991014;28;20405;-85
2021/12/06 09:01:54;;;;;;;21.88;14.35;;;;;;;2.48;100.00;99215.34;4991951;28;20060;-85
2021/12/06 09:04:21;;;;;;;21.45;14.18;;;;;;;2.54;100.00;99224.69;4992127;28;20396;-86
2021/12/06 09:06:49;;;;;;;22.42;14.65;;;;;;;2.62;100.00;99217.97;4975138;28;20061;-85
2021/12/06 09:09:15;;;;;;;19.95;13.50;;;;;;;2.65;100.00;99214.44;4992055;28;20526;-85
2021/12/06 09:11:42;;;;;;;21.50;15.27;;;;;;;2.65;100.00;99219.13;5008840;28;20056;-85
2021/12/06 09:14:08;;;;;;;22.55;15.25;;;;;;;2.68;100.00;99213.63;4979523;28;20141;-85
2021/12/06 09:16:36;;;;;;;23.10;15.05;;;;;;;2.76;100.00;99226.06;4992004;28;20062;-85
2021/12/06 09:19:04;;;;;;;24.50;17.08;;;;;;;2.78;100.00;99229.19;4992095;28;20047;-85
2021/12/06 09:21:30;;;;;;;23.10;15.60;;;;;;;2.83;100.00;99226.00;4991885;28;20038;-86
2021/12/06 09:23:58;;;;;;;23.02;14.35;;;;;;;2.90;100.00;99216.19;4991773;28;20065;-85
2021/12/06 09:26:24;;;;;;;22.65;15.63;;;;;;;2.90;100.00;99213.44;4991834;28;20034;-86
2021/12/06 09:28:49;;;;;;;21.40;14.70;;;;;;;3.01;100.00;99227.81;4991662;28;20519;-86
2021/12/06 09:31:18;;;;;;;23.02;15.52;;;;;;;3.06;100.00;99216.41;4974430;28;20066;-85
2021/12/06 09:33:43;;;;;;;20.33;14.75;;;;;;;3.07;100.00;99201.53;4991924;28;20480;-85
2021/12/06 09:36:10;;;;;;;18.98;12.75;;;;;;;3.07;100.00;99196.84;4991870;28;20038;-85
2021/12/06 09:38:39;;;;;;;18.83;13.25;;;;;;;3.09;100.00;99188.19;4991820;28;20092;-85
2021/12/06 09:41:11;;;;;;;15.32;10.27;;;;;;;3.13;100.00;99183.47;4958615;28;20070;-85
2021/12/06 09:43:39;;;;;;;17.80;12.35;;;;;;;3.20;100.00;99183.38;4991644;28;20046;-85
2021/12/06 09:46:07;;;;;;;17.85;12.80;;;;;;;3.30;100.00;99182.50;4974380;28;20038;-85
2021/12/06 09:48:32;;;;;;;15.88;12.35;;;;;;;3.39;100.00;99185.53;4991789;28;20066;-85
2021/12/06 09:51:03;;;;;;;17.00;11.73;;;;;;;3.39;100.00;99190.25;4991953;28;20070;-85
2021/12/06 09:53:32;;;;;;;15.55;11.75;;;;;;;3.38;100.00;99170.25;4974161;28;20061;-86
2021/12/06 09:56:00;;;;;;;17.50;11.82;;;;;;;3.36;100.00;99175.38;4991847;28;20691;-86
2021/12/06 09:58:26;;;;;;;16.42;10.90;;;;;;;3.34;100.00;99172.28;4991507;28;20078;-86
2021/12/06 10:00:57;;;;;;;16.73;11.60;;;;;;;3.31;100.00;99178.56;4991654;28;20035;-86
2021/12/06 10:03:26;;;;;;;16.40;12.40;;;;;;;3.44;100.00;99165.88;4986731;28;20068;-86
2021/12/06 10:05:52;;;;;;;13.55;9.25;;;;;;;3.65;100.00;99165.63;5011319;28;20045;-85
2021/12/06 10:08:18;;;;;;;14.13;9.77;;;;;;;3.72;98.15;99171.00;4977412;28;20510;-85
2021/12/06 10:10:44;;;;;;;14.90;10.27;;;;;;;3.80;97.96;99165.44;5002248;28;20038;-85
2021/12/06 10:13:09;;;;;;;12.38;9.02;;;;;;;3.85;97.17;99157.50;4981892;28;20041;-86
2021/12/06 10:15:36;;;;;;;13.13;9.82;;;;;;;3.97;97.82;99156.94;5011116;28;20092;-86
2021/12/06 10:18:03;;;;;;;15.13;11.30;;;;;;;4.06;96.87;99157.22;5011148;28;20518;-86
2021/12/06 10:20:30;;;;;;;14.30;10.27;;;;;;;4.16;95.62;99166.50;4992889;28;20034;-85
2021/12/06 10:22:56;;;;;;;13.50;9.20;;;;;;;4.16;95.24;99161.00;4991426;28;20045;-87
2021/12/06 10:25:34;;;;;;;15.75;10.73;;;;;;;4.24;95.52;99173.44;4991239;28;20039;-86
2021/12/06 10:28:04;;;;;;;14.10;10.65;;;;;;;4.31;95.30;99173.31;4981037;28;20041;-86
2021/12/06 10:30:32;;;;;;;13.40;9.93;;;;;;;4.40;95.11;99175.53;5010497;28;20042;-86
2021/12/06 10:33:07;;;;;;;15.82;11.63;;;;;;;4.37;95.63;99181.88;5012126;28;20037;-86
2021/12/06 10:35:34;;;;;;;13.85;10.52;;;;;;;4.39;95.03;99182.22;4981054;28;20042;-86
2021/12/06 10:38:00;;;;;;;16.50;11.07;;;;;;;4.39;95.73;99179.47;4981173;28;20395;-86
2021/12/06 10:40:32;;;;;;;13.57;9.45;;;;;;;4.51;94.38;99187.91;5014402;28;20042;-87
2021/12/06 10:43:00;;;;;;;13.80;10.13;;;;;;;4.59;93.94;99189.34;5014857;28;20049;-86
2021/12/06 10:45:29;;;;;;;14.55;9.60;;;;;;;4.61;92.46;99186.94;5014123;28;20053;-86
2021/12/06 10:48:19;;;;;;;14.30;10.77;;;;;;;4.59;93.65;99189.34;4997214;28;20054;-87
2021/12/06 10:50:51;;;;;;;15.35;10.48;;;;;;;4.58;92.25;99203.50;5014091;28;20042;-88
2021/12/06 10:53:21;;;;;;;16.20;10.13;;;;;;;4.55;94.29;99198.84;5014239;28;20257;-86
2021/12/06 10:55:51;;;;;;;15.18;11.15;;;;;;;4.53;94.72;99188.25;5014447;28;20068;-87
2021/12/06 10:58:19;;;;;;;15.63;11.40;;;;;;;4.57;95.56;99201.97;4997011;28;20169;-86
2021/12/06 11:00:52;;;;;;;16.13;10.65;;;;;;;4.52;93.18;99205.94;4996679;28;20050;-86
2021/12/06 11:03:24;;;;;;;15.23;10.68;;;;;;;4.62;94.34;99206.94;5000956;28;20054;-86
2021/12/06 11:06:05;;;;;;;13.25;10.00;;;;;;;4.65;93.54;99209.63;4994688;28;20054;-86
2021/12/06 11:08:34;;;;;;;13.65;9.48;;;;;;;4.72;91.43;99218.97;4994577;28;20064;-87
2021/12/06 11:11:26;;;;;;;13.68;9.75;;;;;;;4.78;91.34;99212.56;5005546;28;20076;-86
2021/12/06 11:13:55;;;;;;;13.30;9.68;;;;;;;4.82;91.05;99216.03;4981327;28;20376;-86
2021/12/06 11:16:28;;;;;;;14.80;10.10;;;;;;;4.79;90.96;99214.13;4976750;28;20472;-86
2021/12/06 11:19:09;;;;;;;13.15;9.05;;;;;;;4.77;90.01;99224.78;4977024;28;20042;-86
2021/12/06 11:21:39;;;;;;;14.30;8.90;;;;;;;4.67;89.99;99244.94;4976727;28;20050;-86
2021/12/06 11:24:25;;;;;;;10.82;8.18;;;;;;;4.84;90.52;99237.63;4976718;28;20051;-85
2021/12/06 11:27:06;;;;;;;14.93;9.35;;;;;;;4.92;90.10;99241.81;4976938;28;20046;-86
2021/12/06 11:29:46;;;;;;;10.20;7.82;;;;;;;5.12;87.28;99248.13;4976225;28;20138;-85
2021/12/06 11:32:31;;;;;;;12.80;8.85;;;;;;;5.21;86.68;99251.13;4993865;28;20050;-85
2021/12/06 11:35:20;;;;;;;11.55;8.93;;;;;;;5.34;86.70;99241.03;4994000;28;20454;-85
2021/12/06 11:37:51;;;;;;;10.77;7.20;;;;;;;5.31;85.62;99252.88;4977644;28;20462;-86
2021/12/06 11:40:24;;;;;;;15.10;8.48;;;;;;;5.28;86.38;99248.25;4993758;28;20051;-85
2021/12/06 11:42:59;;;;;;;12.55;8.60;;;;;;;5.07;85.50;99248.59;4976471;28;20061;-85